createdAt,value
2022-11-12T00:00:47.571Z,95.51
2022-11-12T00:03:15.080Z,96.03
2022-11-12T00:05:42.663Z,95.29
2022-11-12T00:08:11.614Z,94.80
2022-11-12T00:10:41.958Z,94.67
2022-11-12T00:13:12.237Z,94.86
2022-11-12T00:15:42.078Z,94.72
2022-11-12T00:18:11.704Z,95.32
2022-11-12T00:20:39.330Z,95.51
2022-11-12T00:23:06.971Z,96.07
2022-11-12T00:25:39.215Z,96.06
2022-11-12T00:28:08.228Z,95.91
2022-11-12T00:30:38.112Z,96.56
2022-11-12T00:33:06.531Z,97.13
2022-11-12T00:35:34.928Z,97.17
2022-11-12T00:38:02.771Z,98.03
2022-11-12T00:40:30.737Z,98.44
2022-11-12T00:42:59.677Z,98.51
2022-11-12T00:45:27.445Z,98.13
2022-11-12T00:47:56.391Z,99.02
2022-11-12T00:50:26.785Z,99.25
2022-11-12T00:52:56.497Z,99.11
2022-11-12T00:55:25.397Z,98.79
2022-11-12T00:57:54.289Z,98.06
2022-11-12T01:00:25.067Z,97.82
2022-11-12T01:02:58.586Z,97.40
2022-11-12T01:05:26.327Z,98.37
2022-11-12T01:07:56.165Z,98.29
2022-11-12T01:10:23.974Z,98.21
2022-11-12T01:12:51.583Z,97.99
2022-11-12T01:15:19.181Z,98.61
2022-11-12T01:17:48.046Z,98.58
2022-11-12T01:20:15.589Z,98.77
2022-11-12T01:22:43.261Z,98.28
2022-11-12T01:25:10.763Z,98.09
2022-11-12T01:27:38.295Z,97.92
2022-11-12T01:30:07.109Z,97.83
2022-11-12T01:32:36.209Z,97.33
2022-11-12T01:35:05.678Z,97.81
2022-11-12T01:37:33.237Z,98.13
2022-11-12T01:40:00.748Z,98.19
2022-11-12T01:42:30.767Z,98.62
2022-11-12T01:44:58.324Z,98.77
2022-11-12T01:47:28.177Z,98.67
2022-11-12T01:49:57.936Z,99.43
2022-11-12T01:52:30.779Z,99.52
2022-11-12T01:55:02.528Z,99.76
2022-11-12T01:57:34.773Z,99.60
2022-11-12T02:00:06.007Z,99.42
2022-11-12T02:02:34.181Z,98.48
2022-11-12T02:05:02.866Z,98.26
2022-11-12T02:07:32.176Z,98.58
2022-11-12T02:10:01.185Z,98.79
2022-11-12T02:12:46.309Z,99.59
2022-11-12T02:15:13.910Z,99.26
2022-11-12T02:17:41.475Z,100.00
2022-11-12T02:20:10.791Z,100.00
2022-11-12T02:22:39.669Z,100.00
2022-11-12T02:25:08.521Z,100.00
2022-11-12T02:27:36.162Z,100.00
2022-11-12T02:30:03.887Z,100.00
2022-11-12T02:32:31.506Z,100.00
2022-11-12T02:34:59.037Z,100.00
2022-11-12T02:37:26.571Z,100.00
2022-11-12T02:39:55.427Z,100.00
2022-11-12T02:42:22.930Z,100.00
2022-11-12T02:44:50.545Z,100.00
2022-11-12T02:47:18.077Z,100.00
2022-11-12T02:49:45.655Z,100.00
2022-11-12T02:52:13.211Z,100.00
2022-11-12T02:54:40.705Z,100.00
2022-11-12T02:57:09.606Z,100.00
2022-11-12T02:59:37.133Z,100.00
2022-11-12T03:02:04.623Z,100.00
2022-11-12T03:04:32.121Z,100.00
2022-11-12T03:06:59.639Z,100.00
2022-11-12T03:09:27.173Z,100.00
2022-11-12T03:11:54.758Z,100.00
2022-11-12T03:14:23.712Z,100.00
2022-11-12T03:16:51.235Z,100.00
2022-11-12T03:19:18.741Z,100.00
2022-11-12T03:21:46.301Z,100.00
2022-11-12T03:24:14.074Z,100.00
2022-11-12T03:26:41.588Z,100.00
2022-11-12T03:29:09.081Z,100.00
2022-11-12T03:31:37.958Z,100.00
2022-11-12T03:34:05.764Z,100.00
2022-11-12T03:36:33.358Z,100.00
2022-11-12T03:39:00.878Z,100.00
2022-11-12T03:41:28.393Z,100.00
2022-11-12T03:43:55.853Z,100.00
2022-11-12T03:46:23.344Z,100.00
2022-11-12T03:48:53.124Z,100.00
2022-11-12T03:51:21.246Z,100.00
2022-11-12T03:53:48.748Z,100.00
2022-11-12T03:56:16.236Z,100.00
2022-11-12T03:58:43.742Z,99.83
2022-11-12T04:01:11.302Z,100.00
2022-11-12T04:03:38.862Z,100.00
2022-11-12T04:06:26.077Z,100.00
2022-11-12T04:08:53.568Z,100.00
2022-11-12T04:11:21.107Z,100.00
2022-11-12T04:13:48.582Z,100.00
2022-11-12T04:16:35.213Z,100.00
2022-11-12T04:19:20.956Z,100.00
2022-11-12T04:21:57.210Z,100.00
2022-11-12T04:24:45.177Z,100.00
2022-11-12T04:27:15.828Z,100.00
2022-11-12T04:30:01.345Z,100.00
2022-11-12T04:32:29.441Z,99.08
2022-11-12T04:34:57.358Z,99.18
2022-11-12T04:37:27.916Z,99.84
2022-11-12T04:39:55.904Z,100.00
2022-11-12T04:42:41.318Z,99.62
2022-11-12T04:45:09.534Z,100.00
2022-11-12T04:47:38.484Z,100.00
2022-11-12T04:50:09.234Z,100.00
2022-11-12T04:52:38.092Z,100.00
2022-11-12T04:55:06.746Z,99.69
2022-11-12T04:57:34.319Z,99.91
2022-11-12T05:00:01.812Z,99.92
2022-11-12T05:02:29.310Z,100.00
2022-11-12T05:04:56.776Z,99.92
2022-11-12T05:07:24.274Z,100.00
2022-11-12T05:09:53.100Z,99.93
2022-11-12T05:12:20.681Z,100.00
2022-11-12T05:14:48.164Z,99.93
2022-11-12T05:17:15.672Z,100.00
2022-11-12T05:19:43.217Z,100.00
2022-11-12T05:22:21.971Z,100.00
2022-11-12T05:24:58.683Z,100.00
2022-11-12T05:27:26.449Z,100.00
2022-11-12T05:29:53.948Z,100.00
2022-11-12T05:32:21.501Z,100.00
2022-11-12T05:34:48.988Z,100.00
2022-11-12T05:37:16.673Z,100.00
2022-11-12T05:39:44.170Z,100.00
2022-11-12T05:42:14.324Z,100.00
2022-11-12T05:44:42.109Z,100.00
2022-11-12T05:47:09.587Z,100.00
2022-11-12T05:49:37.034Z,100.00
2022-11-12T05:52:04.752Z,100.00
2022-11-12T05:54:32.233Z,99.94
2022-11-12T05:56:59.792Z,99.29
2022-11-12T05:59:28.610Z,99.34
2022-11-12T06:01:56.099Z,98.80
2022-11-12T06:04:24.440Z,98.28
2022-11-12T06:06:51.932Z,98.34
2022-11-12T06:09:19.471Z,97.27
2022-11-12T06:11:46.966Z,97.10
2022-11-12T06:14:14.599Z,97.15
2022-11-12T06:16:43.571Z,97.84
2022-11-12T06:19:11.087Z,97.00
2022-11-12T06:21:38.565Z,96.49
2022-11-12T06:24:06.669Z,97.07
2022-11-12T06:26:34.187Z,97.05
2022-11-12T06:29:01.689Z,95.25
2022-11-12T06:31:29.194Z,95.08
2022-11-12T06:33:58.021Z,95.45
2022-11-12T06:36:25.511Z,95.48
2022-11-12T06:38:53.046Z,95.63
2022-11-12T06:41:20.635Z,96.13
2022-11-12T06:43:48.141Z,95.73
2022-11-12T06:46:16.695Z,96.00
2022-11-12T06:48:44.283Z,95.93
2022-11-12T06:51:17.675Z,96.25
2022-11-12T06:53:45.449Z,96.19
2022-11-12T06:56:13.834Z,96.69
2022-11-12T06:58:41.459Z,97.12
2022-11-12T07:01:12.111Z,96.31
2022-11-12T07:03:40.632Z,96.72
2022-11-12T07:06:09.950Z,97.41
2022-11-12T07:08:39.359Z,98.38
2022-11-12T07:11:07.253Z,98.19
2022-11-12T07:13:35.688Z,98.31
2022-11-12T07:16:04.777Z,98.61
2022-11-12T07:18:32.644Z,98.43
2022-11-12T07:21:00.905Z,99.02
2022-11-12T07:23:28.779Z,98.91
2022-11-12T07:25:58.900Z,98.21
2022-11-12T07:28:26.844Z,98.31
2022-11-12T07:31:01.464Z,97.68
2022-11-12T07:33:30.087Z,96.77
2022-11-12T07:35:59.216Z,95.25
2022-11-12T07:38:27.398Z,94.80
2022-11-12T07:41:01.470Z,95.60
2022-11-12T07:43:30.073Z,95.28
2022-11-12T07:46:04.769Z,95.45
2022-11-12T07:48:35.399Z,95.81
2022-11-12T07:51:04.125Z,95.77
2022-11-12T07:53:31.901Z,96.17
2022-11-12T07:56:04.414Z,96.01
2022-11-12T07:58:34.390Z,95.68
2022-11-12T08:01:08.499Z,96.16
2022-11-12T08:03:37.501Z,95.91
2022-11-12T08:06:10.817Z,96.61
2022-11-12T08:08:38.584Z,96.94
2022-11-12T08:11:08.938Z,96.72
2022-11-12T08:13:37.885Z,96.68
2022-11-12T08:16:06.251Z,95.98
2022-11-12T08:18:34.193Z,95.64
2022-11-12T08:21:06.073Z,95.37
2022-11-12T08:23:34.935Z,95.92
2022-11-12T08:26:03.766Z,96.01
2022-11-12T08:28:37.162Z,95.79
2022-11-12T08:31:06.947Z,96.15
2022-11-12T08:33:34.750Z,96.34
2022-11-12T08:36:04.037Z,96.54
2022-11-12T08:38:31.856Z,95.67
2022-11-12T08:41:01.659Z,95.67
2022-11-12T08:43:29.330Z,95.90
2022-11-12T08:46:00.015Z,96.25
2022-11-12T08:48:30.988Z,95.57
2022-11-12T08:50:59.008Z,95.94
2022-11-12T08:53:27.883Z,95.20
2022-11-12T08:55:55.700Z,94.67
2022-11-12T08:58:24.151Z,95.50
2022-11-12T09:00:52.728Z,95.37
2022-11-12T09:03:24.013Z,95.33
2022-11-12T09:05:52.266Z,95.83
2022-11-12T09:08:21.977Z,96.14
2022-11-12T09:10:50.267Z,95.97
2022-11-12T09:13:18.339Z,96.78
2022-11-12T09:15:46.532Z,97.27
2022-11-12T09:18:16.334Z,97.36
2022-11-12T09:20:45.801Z,97.87
2022-11-12T09:23:14.746Z,97.63
2022-11-12T09:25:43.038Z,96.89
2022-11-12T09:28:11.714Z,96.40
2022-11-12T09:30:42.695Z,96.32
2022-11-12T09:33:10.355Z,95.74
2022-11-12T09:35:37.889Z,94.54
2022-11-12T09:38:06.806Z,92.97
2022-11-12T09:40:57.251Z,93.24
2022-11-12T09:43:27.243Z,91.71
2022-11-12T09:46:13.853Z,92.25
2022-11-12T09:48:46.189Z,92.97
2022-11-12T09:51:18.008Z,92.90
2022-11-12T09:53:50.371Z,92.26
2022-11-12T09:56:20.013Z,92.04
2022-11-12T09:58:47.856Z,91.73
2022-11-12T10:01:17.990Z,92.45
2022-11-12T10:03:54.435Z,91.47
2022-11-12T10:06:23.893Z,92.34
2022-11-12T10:08:54.752Z,92.06
2022-11-12T10:12:01.268Z,91.84
2022-11-12T10:14:44.525Z,90.90
2022-11-12T10:17:15.256Z,91.03
2022-11-12T10:19:51.085Z,91.63
2022-11-12T10:22:27.884Z,92.25
2022-11-12T10:24:57.646Z,91.33
2022-11-12T10:27:29.471Z,91.24
2022-11-12T10:30:01.306Z,90.74
2022-11-12T10:32:28.946Z,90.71
2022-11-12T10:34:56.447Z,91.26
2022-11-12T10:37:27.459Z,90.22
2022-11-12T10:39:56.358Z,91.57
2022-11-12T10:42:24.283Z,91.57
2022-11-12T10:44:52.720Z,91.78
2022-11-12T10:47:23.691Z,90.60
2022-11-12T10:50:05.002Z,90.19
2022-11-12T10:52:32.742Z,89.59
2022-11-12T10:55:16.538Z,88.60
2022-11-12T10:57:44.119Z,87.99
2022-11-12T11:00:22.308Z,88.41
2022-11-12T11:02:52.492Z,87.89
2022-11-12T11:05:32.819Z,87.97
2022-11-12T11:08:01.559Z,88.15
2022-11-12T11:10:32.727Z,87.96
2022-11-12T11:13:10.676Z,88.15
2022-11-12T11:15:40.162Z,87.91
2022-11-12T11:18:10.016Z,88.38
2022-11-12T11:20:44.628Z,88.74
2022-11-12T11:23:17.125Z,89.01
2022-11-12T11:25:48.023Z,89.46
2022-11-12T11:28:23.043Z,89.63
2022-11-12T11:30:54.989Z,89.85
2022-11-12T11:33:26.867Z,89.48
2022-11-12T11:36:00.780Z,89.13
2022-11-12T11:38:35.800Z,89.12
2022-11-12T11:41:19.724Z,88.53
2022-11-12T11:43:55.225Z,88.09
2022-11-12T11:46:51.318Z,88.86
2022-11-12T11:49:40.089Z,87.75
2022-11-12T11:52:13.222Z,88.11
2022-11-12T11:54:55.067Z,87.97
2022-11-12T11:57:29.916Z,88.09
2022-11-12T12:00:06.255Z,88.02
2022-11-12T12:02:45.643Z,87.75
2022-11-12T12:05:25.923Z,87.90
2022-11-12T12:07:58.284Z,88.76
2022-11-12T12:10:40.225Z,88.22
2022-11-12T12:13:22.577Z,89.53
2022-11-12T12:16:02.097Z,89.24
2022-11-12T12:18:37.047Z,87.56
2022-11-12T12:21:07.775Z,87.34
2022-11-12T12:23:38.551Z,86.15
2022-11-12T12:26:09.243Z,86.72
2022-11-12T12:28:41.390Z,86.79
2022-11-12T12:31:12.870Z,86.89
2022-11-12T12:33:45.267Z,86.51
2022-11-12T12:36:17.333Z,87.11
2022-11-12T12:38:47.657Z,86.58
2022-11-12T12:41:19.546Z,85.17
2022-11-12T12:43:52.321Z,85.19
2022-11-12T12:46:23.876Z,85.12
2022-11-12T12:48:53.982Z,84.59
2022-11-12T12:51:22.071Z,84.69
2022-11-12T12:53:49.673Z,84.58
2022-11-12T12:56:43.511Z,84.46
2022-11-12T12:59:21.280Z,85.81
2022-11-12T13:01:56.253Z,84.69
2022-11-12T13:04:52.381Z,84.52
2022-11-12T13:07:23.737Z,84.45
2022-11-12T13:09:51.278Z,84.75
2022-11-12T13:12:24.818Z,84.93
2022-11-12T13:15:21.999Z,84.37
2022-11-12T13:17:53.090Z,84.24
2022-11-12T13:20:39.540Z,84.68
2022-11-12T13:24:03.712Z,85.02
2022-11-12T13:26:59.682Z,86.61
2022-11-12T13:29:45.513Z,86.82
2022-11-12T13:32:34.723Z,85.74
2022-11-12T13:35:34.684Z,84.92
2022-11-12T13:38:05.778Z,85.05
2022-11-12T13:40:47.512Z,84.64
2022-11-12T13:43:27.556Z,85.58
2022-11-12T13:45:58.369Z,85.22
2022-11-12T13:48:29.350Z,84.99
2022-11-12T13:51:02.998Z,85.86
2022-11-12T13:53:32.960Z,86.09
2022-11-12T13:56:05.051Z,85.65
2022-11-12T13:58:35.078Z,86.31
2022-11-12T14:01:04.060Z,86.76
2022-11-12T14:03:35.190Z,85.66
2022-11-12T14:06:07.101Z,85.85
2022-11-12T14:08:56.701Z,86.67
2022-11-12T14:11:44.611Z,86.62
2022-11-12T14:14:21.592Z,86.95
2022-11-12T14:16:58.435Z,86.29
2022-11-12T14:19:53.843Z,85.88
2022-11-12T14:22:22.331Z,85.88
2022-11-12T14:24:53.379Z,85.73
2022-11-12T14:27:25.575Z,86.26
2022-11-12T14:30:16.796Z,86.57
2022-11-12T14:32:46.038Z,86.54
2022-11-12T14:35:43.827Z,86.22
2022-11-12T14:38:14.602Z,86.52
2022-11-12T14:40:47.883Z,86.63
2022-11-12T14:43:27.403Z,86.74
2022-11-12T14:45:59.157Z,86.19
2022-11-12T14:48:27.158Z,86.71
2022-11-12T14:50:59.564Z,87.00
2022-11-12T14:53:35.837Z,87.38
2022-11-12T14:56:05.409Z,88.18
2022-11-12T14:58:36.717Z,88.60
2022-11-12T15:02:08.534Z,89.53
2022-11-12T15:04:19.888Z,89.26
2022-11-12T15:06:53.741Z,89.46
2022-11-12T15:09:33.878Z,90.07
2022-11-12T15:12:05.681Z,90.07
2022-11-12T15:14:35.678Z,90.31
2022-11-12T15:17:06.005Z,89.20
2022-11-12T15:19:33.922Z,88.70
2022-11-12T15:22:02.938Z,88.71
2022-11-12T15:24:38.977Z,89.52
2022-11-12T15:27:35.482Z,89.78
2022-11-12T15:30:16.239Z,89.45
2022-11-12T15:32:46.237Z,90.42
2022-11-12T15:35:33.681Z,91.57
2022-11-12T15:38:03.133Z,91.72
2022-11-12T15:40:32.103Z,92.68
2022-11-12T15:43:00.369Z,93.14
2022-11-12T15:45:28.125Z,93.43
2022-11-12T15:47:57.147Z,91.88
2022-11-12T15:50:26.000Z,91.96
2022-11-12T15:52:53.838Z,90.37
2022-11-12T15:55:21.643Z,90.14
2022-11-12T15:57:50.665Z,90.50
2022-11-12T16:00:20.063Z,90.80
2022-11-12T16:02:48.985Z,90.17
2022-11-12T16:05:19.226Z,89.86
2022-11-12T16:08:13.870Z,90.68
2022-11-12T16:10:43.378Z,90.83
2022-11-12T16:13:16.777Z,90.89
2022-11-12T16:15:44.612Z,91.68
2022-11-12T16:18:12.558Z,91.61
2022-11-12T16:20:41.734Z,91.34
2022-11-12T16:23:09.511Z,91.74
2022-11-12T16:25:38.653Z,91.87
2022-11-12T16:28:11.668Z,92.46
2022-11-12T16:30:39.396Z,92.27
2022-11-12T16:33:07.106Z,92.54
2022-11-12T16:35:36.123Z,92.65
2022-11-12T16:38:05.543Z,93.35
2022-11-12T16:40:33.301Z,93.37
2022-11-12T16:43:00.963Z,93.60
2022-11-12T16:45:35.560Z,93.89
2022-11-12T16:48:12.407Z,94.30
2022-11-12T16:50:40.262Z,94.67
2022-11-12T16:53:09.358Z,95.06
2022-11-12T16:55:37.097Z,94.50
2022-11-12T16:58:04.809Z,94.90
2022-11-12T17:00:34.011Z,94.28
2022-11-12T17:03:01.769Z,94.79
2022-11-12T17:05:29.434Z,94.33
2022-11-12T17:07:58.596Z,94.03
2022-11-12T17:10:31.597Z,94.34
2022-11-12T17:12:59.443Z,94.43
2022-11-12T17:15:27.388Z,94.07
2022-11-12T17:17:55.246Z,94.59
2022-11-12T17:20:23.051Z,94.52
2022-11-12T17:22:50.673Z,94.55
2022-11-12T17:25:18.602Z,94.46
2022-11-12T17:27:47.721Z,94.94
2022-11-12T17:30:15.742Z,95.28
2022-11-12T17:32:43.828Z,95.41
2022-11-12T17:35:11.519Z,95.03
2022-11-12T17:37:39.269Z,95.37
2022-11-12T17:40:08.480Z,94.81
2022-11-12T17:42:36.261Z,94.95
2022-11-12T17:45:06.115Z,95.44
2022-11-12T17:47:39.320Z,95.19
2022-11-12T17:50:10.875Z,95.01
2022-11-12T17:52:38.530Z,95.03
2022-11-12T17:55:09.374Z,94.98
2022-11-12T17:57:37.195Z,95.30
2022-11-12T18:00:07.908Z,94.92
2022-11-12T18:02:35.778Z,95.45
2022-11-12T18:05:07.678Z,95.24
2022-11-12T18:07:35.566Z,95.23
2022-11-12T18:10:03.543Z,95.76
2022-11-12T18:12:31.267Z,95.36
2022-11-12T18:14:58.896Z,95.43
2022-11-12T18:17:28.332Z,95.74
2022-11-12T18:19:55.981Z,95.29
2022-11-12T18:22:23.657Z,95.87
2022-11-12T18:24:52.766Z,95.41
2022-11-12T18:27:20.509Z,95.44
2022-11-12T18:29:48.269Z,95.82
2022-11-12T18:32:16.047Z,95.66
2022-11-12T18:34:46.034Z,95.38
2022-11-12T18:37:13.660Z,95.26
2022-11-12T18:39:41.240Z,94.85
2022-11-12T18:42:08.828Z,95.53
2022-11-12T18:44:36.753Z,95.48
2022-11-12T18:47:04.281Z,95.16
2022-11-12T18:49:31.849Z,95.54
2022-11-12T18:52:00.679Z,95.66
2022-11-12T18:54:28.187Z,95.71
2022-11-12T18:56:55.766Z,95.82
2022-11-12T18:59:24.249Z,95.09
2022-11-12T19:01:51.768Z,95.34
2022-11-12T19:04:19.343Z,95.56
2022-11-12T19:06:47.002Z,94.93
2022-11-12T19:09:16.035Z,95.45
2022-11-12T19:11:43.881Z,95.48
2022-11-12T19:14:12.040Z,95.64
2022-11-12T19:16:44.701Z,96.35
2022-11-12T19:19:12.842Z,96.16
2022-11-12T19:21:40.818Z,96.58
2022-11-12T19:24:21.568Z,96.35
2022-11-12T19:26:52.679Z,96.68
2022-11-12T19:29:51.382Z,95.45
2022-11-12T19:32:18.362Z,95.73
2022-11-12T19:34:49.563Z,96.52
2022-11-12T19:37:33.059Z,95.97
2022-11-12T19:40:06.239Z,96.09
2022-11-12T19:42:38.185Z,96.65
2022-11-12T19:45:08.863Z,96.39
2022-11-12T19:47:54.659Z,96.37
2022-11-12T19:50:32.767Z,96.32
2022-11-12T19:53:00.364Z,95.96
2022-11-12T19:55:38.653Z,96.11
2022-11-12T19:58:09.496Z,96.39
2022-11-12T20:00:40.806Z,96.78
2022-11-12T20:03:08.838Z,96.67
2022-11-12T20:05:36.420Z,96.32
2022-11-12T20:08:04.790Z,96.59
2022-11-12T20:10:38.095Z,96.44
2022-11-12T20:13:13.123Z,96.16
2022-11-12T20:15:47.097Z,96.49
2022-11-12T20:18:14.913Z,96.56
2022-11-12T20:20:47.016Z,96.62
2022-11-12T20:23:16.215Z,95.98
2022-11-12T20:25:47.389Z,96.56
2022-11-12T20:28:16.759Z,96.58
2022-11-12T20:30:54.961Z,96.82
2022-11-12T20:33:22.936Z,97.26
2022-11-12T20:35:50.683Z,96.81
2022-11-12T20:38:18.341Z,96.86
2022-11-12T20:40:48.218Z,96.91
2022-11-12T20:43:16.426Z,97.18
2022-11-12T20:45:51.222Z,96.51
2022-11-12T20:48:20.410Z,96.71
2022-11-12T20:51:16.782Z,96.57
2022-11-12T20:53:40.803Z,96.91
2022-11-12T20:56:09.992Z,96.78
2022-11-12T21:01:36.707Z,96.57
2022-11-12T21:04:06.036Z,97.20
2022-11-12T21:06:33.693Z,97.54
2022-11-12T21:09:01.411Z,96.87
2022-11-12T21:11:31.322Z,96.74
2022-11-12T21:14:00.053Z,97.24
2022-11-12T21:16:30.572Z,96.60
2022-11-12T21:19:06.849Z,96.96
2022-11-12T21:21:36.079Z,97.04
2022-11-12T21:24:06.775Z,97.18
2022-11-12T21:26:36.873Z,96.77
2022-11-12T21:29:22.883Z,97.29
2022-11-12T21:31:52.642Z,97.63
2022-11-12T21:35:20.986Z,97.99
2022-11-12T21:37:48.544Z,97.59
2022-11-12T21:40:27.654Z,97.14
2022-11-12T21:42:55.444Z,97.47
2022-11-12T21:45:23.112Z,97.29
2022-11-12T21:47:50.833Z,97.53
2022-11-12T21:50:20.114Z,97.39
2022-11-12T21:53:13.908Z,97.17
2022-11-12T21:55:50.506Z,97.15
2022-11-12T21:58:18.366Z,96.08
2022-11-12T22:00:52.209Z,96.39
2022-11-12T22:03:22.696Z,96.23
2022-11-12T22:05:52.088Z,96.42
2022-11-12T22:08:33.222Z,96.80
2022-11-12T22:11:08.186Z,96.86
2022-11-12T22:20:43.064Z,96.11
2022-11-12T22:23:20.552Z,95.82
2022-11-12T22:26:40.956Z,95.65
2022-11-12T22:28:42.722Z,95.72
2022-11-12T22:31:14.087Z,96.10
2022-11-12T22:33:46.398Z,95.88
2022-11-12T22:36:22.636Z,95.86
2022-11-12T22:39:14.627Z,95.43
2022-11-12T22:41:48.147Z,95.40
2022-11-12T22:44:26.273Z,95.92
2022-11-12T22:46:55.211Z,96.45
2022-11-12T22:49:27.752Z,96.35
2022-11-12T22:51:55.509Z,96.10
2022-11-12T22:55:44.688Z,96.19
2022-11-12T22:57:45.916Z,95.97
2022-11-12T23:00:16.361Z,95.46
2022-11-12T23:02:58.297Z,95.24
2022-11-12T23:05:28.425Z,95.30
2022-11-12T23:08:03.204Z,95.14
2022-11-12T23:10:39.415Z,95.57
2022-11-12T23:13:26.591Z,95.77
2022-11-12T23:15:54.610Z,95.27
2022-11-12T23:18:27.007Z,95.75
2022-11-12T23:21:07.797Z,95.71
2022-11-12T23:23:48.564Z,95.68
2022-11-12T23:26:29.630Z,95.13
2022-11-12T23:28:57.526Z,94.89
2022-11-12T23:31:27.228Z,95.29
2022-11-12T23:33:56.055Z,95.79
2022-11-12T23:36:24.697Z,95.63
2022-11-12T23:38:52.603Z,95.61
2022-11-12T23:41:25.661Z,95.99
2022-11-12T23:43:54.280Z,95.90
2022-11-12T23:46:21.916Z,95.80
2022-11-12T23:48:50.916Z,96.42
2022-11-12T23:51:20.498Z,95.24
2022-11-12T23:53:50.215Z,95.36
2022-11-12T23:56:19.353Z,95.19
2022-11-12T23:58:50.734Z,94.85
